Terminal Aerodrome Forecast
Issued by NWS

Home | Current Version | Previous Version | Graphics & Text | Print | Product List | Glossary On
Versions: 1 2 3 4 5 6 7 8 9 10 11 12 13 14 15 16 17 18 19 20
000
FTUS43 KTOP 130500
TAFFOE
TAF
KFOE 130520Z 1306/1406 36001KT P6SM SKC
      TEMPO 1310/1313 5SM BR
     FM131500 14008KT P6SM SKC
     FM140100 14003KT P6SM BKN250=

USA.gov is the U.S. government's official web portal to all federal, state and local government web resources and services.